createdAt,value
2023-05-05T00:00:29.406Z,68.6551
2023-05-05T00:01:32.070Z,69.1271
2023-05-05T00:02:34.661Z,69.5718
2023-05-05T00:03:37.267Z,69.5594
2023-05-05T00:04:37.197Z,69.5552
2023-05-05T00:05:39.914Z,68.9910
2023-05-05T00:06:42.566Z,68.8129
2023-05-05T00:07:45.092Z,67.8902
2023-05-05T00:08:47.599Z,68.0740
2023-05-05T00:09:50.134Z,68.8683
2023-05-05T00:10:52.774Z,70.0759
2023-05-05T00:11:55.367Z,70.5829
2023-05-05T00:12:57.901Z,70.5192
2023-05-05T00:14:00.396Z,70.8249
2023-05-05T00:15:02.875Z,71.0144
2023-05-05T00:16:05.367Z,71.1391
2023-05-05T00:17:07.878Z,71.4855
2023-05-05T00:18:10.375Z,71.4324
2023-05-05T00:19:12.879Z,71.6860
2023-05-05T00:20:15.449Z,71.6223
2023-05-05T00:21:17.944Z,71.5458
2023-05-05T00:22:20.538Z,71.4289
2023-05-05T00:23:23.217Z,71.1985
2023-05-05T00:24:25.745Z,71.3066
2023-05-05T00:25:28.290Z,71.2705
2023-05-05T00:26:30.838Z,71.3184
2023-05-05T00:27:33.332Z,71.6846
2023-05-05T00:28:35.839Z,71.4279
2023-05-05T00:29:38.368Z,71.4653
2023-05-05T00:30:40.933Z,71.9260
2023-05-05T00:31:43.524Z,71.9753
2023-05-05T00:32:46.120Z,71.6505
2023-05-05T00:33:48.612Z,71.6021
2023-05-05T00:34:51.130Z,71.4985
2023-05-05T00:35:53.638Z,71.4541
2023-05-05T00:36:56.132Z,71.3956
2023-05-05T00:37:58.709Z,71.0778
2023-05-05T00:39:01.246Z,71.0070
2023-05-05T00:40:03.913Z,70.6242
2023-05-05T00:41:06.388Z,70.6666
2023-05-05T00:42:08.967Z,70.8846
2023-05-05T00:43:11.511Z,70.9084
2023-05-05T00:44:14.082Z,70.8669
2023-05-05T00:45:16.655Z,70.8073
2023-05-05T00:46:19.589Z,71.0134
2023-05-05T00:47:19.269Z,71.1192
2023-05-05T00:48:21.740Z,71.0694
2023-05-05T00:49:24.278Z,70.9990
2023-05-05T00:50:26.762Z,71.2552
2023-05-05T00:51:29.316Z,71.4156
2023-05-05T00:52:31.813Z,71.6172
2023-05-05T00:53:34.383Z,71.7957
2023-05-05T00:54:36.956Z,71.6723
2023-05-05T00:55:39.577Z,71.8663
2023-05-05T00:56:42.075Z,71.7947
2023-05-05T00:57:44.628Z,72.1349
2023-05-05T00:58:47.245Z,72.3469
2023-05-05T00:59:47.332Z,72.2715
2023-05-05T01:00:49.860Z,72.7826
2023-05-05T01:01:52.498Z,73.7503
2023-05-05T01:02:55.237Z,73.3890
2023-05-05T01:03:55.331Z,73.4805
2023-05-05T01:04:57.841Z,73.8684
2023-05-05T01:06:00.425Z,73.5629
2023-05-05T01:07:03.003Z,73.1146
2023-05-05T01:08:05.611Z,73.0451
2023-05-05T01:09:08.236Z,73.1400
2023-05-05T01:10:19.559Z,73.2033
2023-05-05T01:11:10.871Z,72.3804
2023-05-05T01:12:13.512Z,71.9863
2023-05-05T01:13:16.114Z,71.2851
2023-05-05T01:14:18.686Z,70.3928
2023-05-05T01:15:21.229Z,70.6121
2023-05-05T01:16:23.850Z,70.8316
2023-05-05T01:17:23.768Z,71.2341
2023-05-05T01:18:26.315Z,72.3760
2023-05-05T01:19:28.920Z,73.4450
2023-05-05T01:20:31.499Z,73.8108
2023-05-05T01:21:34.070Z,74.7668
2023-05-05T01:22:36.631Z,75.3115
2023-05-05T01:23:39.236Z,75.8260
2023-05-05T01:24:41.803Z,75.7441
2023-05-05T01:25:44.349Z,75.5664
2023-05-05T01:26:46.942Z,75.5471
2023-05-05T01:27:49.514Z,75.5427
2023-05-05T01:28:52.100Z,75.8150
2023-05-05T01:29:54.689Z,75.9391
2023-05-05T01:30:57.315Z,76.1575
2023-05-05T01:31:59.886Z,77.0973
2023-05-05T01:33:02.508Z,77.0728
2023-05-05T01:34:05.093Z,77.1154
2023-05-05T01:35:07.696Z,77.1805
2023-05-05T01:36:10.196Z,77.1432
2023-05-05T01:37:12.806Z,76.8225
2023-05-05T01:38:15.382Z,76.7262
2023-05-05T01:39:18.029Z,76.5413
2023-05-05T01:40:20.606Z,76.4837
2023-05-05T01:41:23.239Z,76.3998
2023-05-05T01:42:25.865Z,76.1683
2023-05-05T01:43:28.446Z,76.0939
2023-05-05T01:44:31.069Z,76.0695
2023-05-05T01:45:33.778Z,76.0081
2023-05-05T01:46:36.395Z,75.7115
2023-05-05T01:47:39.033Z,75.3550
2023-05-05T01:48:42.370Z,75.6079
2023-05-05T01:49:42.287Z,75.6696
2023-05-05T01:50:44.910Z,75.8735
2023-05-05T01:51:47.495Z,75.6653
2023-05-05T01:52:50.066Z,75.3746
2023-05-05T01:53:52.668Z,74.9249
2023-05-05T01:54:55.222Z,74.8710
2023-05-05T01:55:57.823Z,74.7580
2023-05-05T01:57:00.340Z,74.8382
2023-05-05T01:58:02.963Z,75.0315
2023-05-05T01:59:05.507Z,75.1805
2023-05-05T02:00:08.280Z,75.2360
2023-05-05T02:01:08.307Z,74.8191
2023-05-05T02:02:10.992Z,74.7181
2023-05-05T02:03:13.706Z,75.0985
2023-05-05T02:04:16.378Z,75.5134
2023-05-05T02:05:18.954Z,74.9398
2023-05-05T02:06:21.603Z,74.8142
2023-05-05T02:07:24.200Z,75.6355
2023-05-05T02:08:26.827Z,75.3859
2023-05-05T02:09:29.428Z,74.9755
2023-05-05T02:10:32.079Z,74.3995
2023-05-05T02:11:34.701Z,73.4942
2023-05-05T02:12:37.377Z,72.5658
2023-05-05T02:13:40.049Z,71.7009
2023-05-05T02:14:42.618Z,71.4538
2023-05-05T02:15:45.297Z,70.7500
2023-05-05T02:16:47.877Z,70.1511
2023-05-05T02:17:50.488Z,69.0634
2023-05-05T02:18:53.105Z,68.2740
2023-05-05T02:19:55.737Z,68.2529
2023-05-05T02:20:58.307Z,67.9509
2023-05-05T02:22:00.893Z,67.9207
2023-05-05T02:23:03.465Z,68.9457
2023-05-05T02:24:06.079Z,71.0859
2023-05-05T02:25:08.719Z,71.1820
2023-05-05T02:26:11.332Z,71.2220
2023-05-05T02:27:13.933Z,70.8356
2023-05-05T02:28:16.521Z,70.4559
2023-05-05T02:29:19.215Z,72.1142
2023-05-05T02:30:22.041Z,72.8278
2023-05-05T02:31:22.100Z,72.8580
2023-05-05T02:32:22.133Z,73.4648
2023-05-05T02:33:22.139Z,73.3144
2023-05-05T02:34:24.726Z,74.0956
2023-05-05T02:35:27.435Z,74.9402
2023-05-05T02:36:29.972Z,75.1791
2023-05-05T02:37:32.562Z,75.5855
2023-05-05T02:38:35.138Z,75.6556
2023-05-05T02:39:37.695Z,75.9073
2023-05-05T02:40:40.350Z,76.0494
2023-05-05T02:41:42.975Z,76.3217
2023-05-05T02:42:45.606Z,76.1703
2023-05-05T02:43:48.225Z,76.1986
2023-05-05T02:44:50.815Z,76.4640
2023-05-05T02:45:53.417Z,76.7210
2023-05-05T02:46:56.061Z,76.6878
2023-05-05T02:47:58.688Z,77.0519
2023-05-05T02:49:01.261Z,77.1868
2023-05-05T02:50:03.915Z,77.3112
2023-05-05T02:51:06.550Z,77.5405
2023-05-05T02:52:09.137Z,77.5719
2023-05-05T02:53:11.764Z,77.5863
2023-05-05T02:54:14.389Z,77.6525
2023-05-05T02:55:17.084Z,77.5016
2023-05-05T02:56:19.714Z,78.1074
2023-05-05T02:57:22.402Z,78.2249
2023-05-05T02:58:25.103Z,78.3495
2023-05-05T02:59:27.745Z,78.1779
2023-05-05T03:00:30.292Z,78.2887
2023-05-05T03:01:32.977Z,78.1955
2023-05-05T03:02:35.710Z,77.9464
2023-05-05T03:03:35.546Z,77.6418
2023-05-05T03:04:38.098Z,77.3235
2023-05-05T03:05:40.732Z,76.9085
2023-05-05T03:06:43.294Z,77.0753
2023-05-05T03:07:45.819Z,77.2958
2023-05-05T03:08:48.391Z,77.2361
2023-05-05T03:09:51.065Z,77.4510
2023-05-05T03:10:53.622Z,77.5359
2023-05-05T03:11:56.337Z,77.2333
2023-05-05T03:12:58.940Z,77.2903
2023-05-05T03:14:01.558Z,77.3534
2023-05-05T03:15:04.151Z,77.5128
2023-05-05T03:16:06.895Z,77.6806
2023-05-05T03:17:09.486Z,77.1819
2023-05-05T03:18:09.481Z,76.6949
2023-05-05T03:19:12.254Z,76.4470
2023-05-05T03:20:15.030Z,76.8310
2023-05-05T03:21:17.655Z,76.7796
2023-05-05T03:22:20.256Z,77.1891
2023-05-05T03:23:22.950Z,77.5380
2023-05-05T03:24:25.594Z,77.0218
2023-05-05T03:25:28.219Z,77.2475
2023-05-05T03:26:30.828Z,77.3462
2023-05-05T03:27:33.438Z,77.1153
2023-05-05T03:28:35.991Z,76.6244
2023-05-05T03:29:38.592Z,75.8251
2023-05-05T03:30:41.198Z,75.3676
2023-05-05T03:31:43.886Z,74.7917
2023-05-05T03:32:46.505Z,74.2747
2023-05-05T03:33:49.041Z,73.6848
2023-05-05T03:34:51.603Z,73.6738
2023-05-05T03:35:54.165Z,73.2232
2023-05-05T03:36:56.744Z,72.7962
2023-05-05T03:37:59.273Z,73.1452
2023-05-05T03:39:01.777Z,73.5855
2023-05-05T03:40:04.347Z,73.6893
2023-05-05T03:41:06.921Z,73.8863
2023-05-05T03:42:09.533Z,73.8119
2023-05-05T03:43:12.065Z,73.8100
2023-05-05T03:44:14.675Z,73.1848
2023-05-05T03:45:17.259Z,72.8566
2023-05-05T03:46:19.886Z,72.5419
2023-05-05T03:47:22.474Z,72.2631
2023-05-05T03:48:25.061Z,72.1210
2023-05-05T03:49:27.634Z,71.7809
2023-05-05T03:50:30.216Z,71.5323
2023-05-05T03:51:32.789Z,71.4098
2023-05-05T03:52:35.372Z,71.3311
2023-05-05T03:53:38.025Z,70.8695
2023-05-05T03:54:40.608Z,70.5318
2023-05-05T03:55:43.246Z,70.0153
2023-05-05T03:56:45.816Z,69.9313
2023-05-05T03:57:48.457Z,70.2415
2023-05-05T03:58:51.056Z,70.7361
2023-05-05T03:59:53.610Z,71.2219
2023-05-05T04:00:56.208Z,71.5229
2023-05-05T04:01:58.829Z,71.6246
2023-05-05T04:03:01.523Z,71.7298
2023-05-05T04:04:04.208Z,71.4920
2023-05-05T04:05:06.760Z,71.5632
2023-05-05T04:06:09.338Z,71.7153
2023-05-05T04:07:11.917Z,72.0064
2023-05-05T04:08:14.491Z,72.0476
2023-05-05T04:09:17.035Z,71.6339
2023-05-05T04:10:19.660Z,71.1952
2023-05-05T04:11:22.264Z,71.1112
2023-05-05T04:12:24.886Z,71.1291
2023-05-05T04:13:27.429Z,71.1203
2023-05-05T04:14:29.991Z,72.0308
2023-05-05T04:15:32.555Z,72.9657
2023-05-05T04:16:35.127Z,73.3710
2023-05-05T04:17:37.813Z,73.5531
2023-05-05T04:18:40.407Z,73.4665
2023-05-05T04:19:43.020Z,74.0746
2023-05-05T04:20:45.594Z,75.0868
2023-05-05T04:21:48.190Z,75.1294
2023-05-05T04:22:52.597Z,74.9523
2023-05-05T04:23:52.718Z,74.3490
2023-05-05T04:24:55.334Z,74.2104
2023-05-05T04:25:57.900Z,74.5933
2023-05-05T04:27:00.495Z,74.6028
2023-05-05T04:28:03.117Z,74.7929
2023-05-05T04:29:05.676Z,74.7441
2023-05-05T04:30:08.520Z,74.8591
2023-05-05T04:31:08.458Z,75.2260
2023-05-05T04:32:11.134Z,74.9735
2023-05-05T04:33:13.761Z,75.1084
2023-05-05T04:34:16.394Z,73.7406
2023-05-05T04:35:18.962Z,73.6982
2023-05-05T04:36:18.994Z,73.7825
2023-05-05T04:37:19.268Z,74.0179
2023-05-05T04:38:21.879Z,72.6701
2023-05-05T04:39:24.437Z,72.8431
2023-05-05T04:40:26.971Z,72.4136
2023-05-05T04:41:30.153Z,73.0796
2023-05-05T04:42:30.057Z,73.6948
2023-05-05T04:43:32.735Z,73.9508
2023-05-05T04:44:35.319Z,73.4354
2023-05-05T04:45:37.866Z,72.9107
2023-05-05T04:46:40.504Z,73.1597
2023-05-05T04:47:43.090Z,73.5746
2023-05-05T04:48:45.626Z,73.4778
2023-05-05T04:49:48.217Z,73.5474
2023-05-05T04:50:50.785Z,73.7215
2023-05-05T04:51:53.511Z,73.6222
2023-05-05T04:52:56.095Z,73.9476
2023-05-05T04:53:58.669Z,73.9080
2023-05-05T04:55:01.266Z,73.9425
2023-05-05T04:56:03.867Z,73.8920
2023-05-05T04:57:06.437Z,75.0399
2023-05-05T04:58:09.070Z,75.8767
2023-05-05T04:59:11.676Z,75.7083
2023-05-05T05:00:14.271Z,75.6111
2023-05-05T05:01:16.849Z,76.2464
2023-05-05T05:02:19.597Z,75.1881
2023-05-05T05:03:19.552Z,74.1664
2023-05-05T05:04:19.508Z,73.3649
2023-05-05T05:05:22.281Z,72.4245
2023-05-05T05:06:24.908Z,71.7906
2023-05-05T05:07:27.488Z,71.5490
2023-05-05T05:08:30.076Z,72.2029
2023-05-05T05:09:32.706Z,74.0993
2023-05-05T05:10:35.433Z,74.8525
2023-05-05T05:11:37.990Z,75.9053
2023-05-05T05:12:40.635Z,76.9180
2023-05-05T05:13:43.169Z,77.4217
2023-05-05T05:14:45.746Z,77.6291
2023-05-05T05:15:48.301Z,77.7899
2023-05-05T05:16:50.924Z,78.1263
2023-05-05T05:17:53.601Z,78.8781
2023-05-05T05:18:56.211Z,79.4084
2023-05-05T05:19:58.801Z,79.6318
2023-05-05T05:21:01.435Z,79.9788
2023-05-05T05:22:04.012Z,80.2032
2023-05-05T05:23:06.720Z,80.4148
2023-05-05T05:24:09.260Z,80.8722
2023-05-05T05:25:11.853Z,81.1616
2023-05-05T05:26:14.402Z,81.4158
2023-05-05T05:27:17.019Z,81.3692
2023-05-05T05:28:19.640Z,81.6644
2023-05-05T05:29:22.236Z,81.5921
2023-05-05T05:30:24.802Z,81.7339
2023-05-05T05:31:27.372Z,81.5095
2023-05-05T05:32:30.019Z,81.5306
2023-05-05T05:33:32.657Z,81.3179
2023-05-05T05:34:35.474Z,81.3448
2023-05-05T05:35:35.279Z,81.4455
2023-05-05T05:36:37.878Z,81.4650
2023-05-05T05:37:40.496Z,81.1665
2023-05-05T05:38:43.177Z,80.9583
2023-05-05T05:39:45.793Z,81.0887
2023-05-05T05:40:48.379Z,81.2625
2023-05-05T05:41:51.043Z,81.3001
2023-05-05T05:42:53.686Z,81.2716
2023-05-05T05:43:56.320Z,81.3098
2023-05-05T05:44:59.120Z,81.1699
2023-05-05T05:45:58.889Z,81.2935
2023-05-05T05:47:01.501Z,80.6536
2023-05-05T05:48:04.101Z,80.6902
2023-05-05T05:49:06.681Z,80.6319
2023-05-05T05:50:09.478Z,80.6356
2023-05-05T05:51:09.413Z,80.5508
2023-05-05T05:52:11.992Z,80.5230
2023-05-05T05:53:14.574Z,80.0358
2023-05-05T05:54:17.170Z,79.1748
2023-05-05T05:55:19.728Z,78.4142
2023-05-05T05:56:22.275Z,77.7632
2023-05-05T05:57:24.899Z,77.5441
2023-05-05T05:58:27.528Z,77.7813
2023-05-05T05:59:30.185Z,77.4713
2023-05-05T06:00:32.944Z,77.0275
2023-05-05T06:01:32.920Z,77.2019
2023-05-05T06:02:35.626Z,76.6098
2023-05-05T06:03:38.441Z,77.5626
2023-05-05T06:04:38.329Z,76.6448
2023-05-05T06:05:40.965Z,74.6517
2023-05-05T06:06:43.623Z,74.3257
2023-05-05T06:07:46.280Z,75.3836
2023-05-05T06:08:48.959Z,75.3203
2023-05-05T06:09:51.591Z,75.6980
2023-05-05T06:10:54.280Z,76.9949
2023-05-05T06:11:56.981Z,76.6318
2023-05-05T06:12:59.693Z,76.2318
2023-05-05T06:13:59.604Z,76.8419
2023-05-05T06:15:02.266Z,76.7761
2023-05-05T06:16:05.007Z,76.4891
2023-05-05T06:17:07.575Z,76.2328
2023-05-05T06:18:10.414Z,75.2769
2023-05-05T06:19:10.455Z,74.4025
2023-05-05T06:20:13.047Z,73.9678
2023-05-05T06:21:15.687Z,73.3545
2023-05-05T06:22:18.467Z,72.1433
2023-05-05T06:23:18.295Z,71.8994
2023-05-05T06:24:21.075Z,71.3295
2023-05-05T06:25:20.919Z,71.1644
2023-05-05T06:26:23.554Z,70.5551
2023-05-05T06:27:26.154Z,70.8612
2023-05-05T06:28:28.788Z,71.3228
2023-05-05T06:29:31.388Z,71.0015
2023-05-05T06:30:33.995Z,70.6931
2023-05-05T06:31:36.691Z,71.7487
2023-05-05T06:32:39.451Z,71.4035
2023-05-05T06:33:42.101Z,70.1925
2023-05-05T06:34:44.723Z,69.7962
2023-05-05T06:35:47.354Z,68.6157
2023-05-05T06:36:50.151Z,67.0805
2023-05-05T06:37:52.779Z,67.2887
2023-05-05T06:38:55.445Z,67.2038
2023-05-05T06:39:58.075Z,68.0050
2023-05-05T06:41:00.737Z,68.5101
2023-05-05T06:42:03.428Z,68.4414
2023-05-05T06:43:06.083Z,67.4401
2023-05-05T06:44:08.718Z,67.0153
2023-05-05T06:45:11.358Z,68.0851
2023-05-05T06:46:11.386Z,67.5296
2023-05-05T06:47:11.361Z,66.4812
2023-05-05T06:48:11.327Z,66.2393
2023-05-05T06:49:13.990Z,66.1721
2023-05-05T06:50:16.593Z,66.2885
2023-05-05T06:51:19.200Z,65.1458
2023-05-05T06:52:21.991Z,65.3162
2023-05-05T06:53:21.800Z,65.5263
2023-05-05T06:54:24.357Z,66.0922
2023-05-05T06:55:27.013Z,64.6014
2023-05-05T06:56:29.634Z,65.3446
2023-05-05T06:57:32.244Z,65.2497
2023-05-05T06:58:34.874Z,65.1791
2023-05-05T06:59:37.465Z,65.4875
2023-05-05T07:00:40.070Z,63.9090
2023-05-05T07:01:42.667Z,63.3050
2023-05-05T07:02:45.340Z,62.7547
2023-05-05T07:03:48.032Z,64.2718
2023-05-05T07:04:47.988Z,64.6432
2023-05-05T07:05:50.622Z,63.4810
2023-05-05T07:06:53.272Z,63.0260
2023-05-05T07:07:55.850Z,62.7347
2023-05-05T07:08:58.452Z,62.7300
2023-05-05T07:10:01.087Z,62.6719
2023-05-05T07:11:03.790Z,63.7598
2023-05-05T07:12:06.416Z,63.7854
2023-05-05T07:13:09.079Z,62.7461
2023-05-05T07:14:09.077Z,62.3016
2023-05-05T07:15:26.052Z,62.9784
2023-05-05T07:16:11.917Z,62.5850
2023-05-05T07:17:14.532Z,62.4787
2023-05-05T07:18:17.165Z,62.5555
2023-05-05T07:19:19.820Z,62.7931
2023-05-05T07:20:22.415Z,62.5306
2023-05-05T07:21:25.082Z,63.0321
2023-05-05T07:22:27.659Z,62.9350
2023-05-05T07:23:30.239Z,62.7635
2023-05-05T07:24:32.866Z,62.6363
2023-05-05T07:25:35.486Z,62.3244
2023-05-05T07:26:38.232Z,62.3533
2023-05-05T07:27:40.777Z,62.3069
2023-05-05T07:28:43.385Z,61.9480
2023-05-05T07:29:46.015Z,61.3587
2023-05-05T07:30:48.622Z,61.6259
2023-05-05T07:31:51.393Z,61.7471
2023-05-05T07:32:51.356Z,61.3851
2023-05-05T07:33:51.264Z,61.2454
2023-05-05T07:34:53.850Z,61.4034
2023-05-05T07:35:56.456Z,61.2604
2023-05-05T07:36:59.112Z,61.2349
2023-05-05T07:38:01.686Z,62.0784
2023-05-05T07:39:04.317Z,62.1192
2023-05-05T07:40:07.169Z,62.6240
2023-05-05T07:41:07.186Z,62.2680
2023-05-05T07:42:09.819Z,62.6438
2023-05-05T07:43:12.464Z,62.7488
2023-05-05T07:44:15.041Z,61.9606
2023-05-05T07:45:17.659Z,61.4334
2023-05-05T07:46:20.336Z,62.4110
2023-05-05T07:47:20.225Z,61.8686
2023-05-05T07:48:22.779Z,61.9045
2023-05-05T07:49:25.405Z,61.9987
2023-05-05T07:50:28.040Z,61.4416
2023-05-05T07:51:32.023Z,61.3531
2023-05-05T07:52:45.365Z,61.7926
2023-05-05T07:53:33.119Z,62.4164
2023-05-05T07:54:35.818Z,62.4447
2023-05-05T07:55:38.349Z,62.2350
2023-05-05T07:56:40.999Z,62.3645
2023-05-05T07:57:43.726Z,62.2816
2023-05-05T07:58:46.325Z,62.2036
2023-05-05T07:59:48.977Z,62.0218
2023-05-05T08:00:51.606Z,61.7574
2023-05-05T08:01:55.037Z,61.8579
2023-05-05T08:02:55.016Z,61.8716
2023-05-05T08:03:57.626Z,61.5645
2023-05-05T08:05:00.241Z,61.8572
2023-05-05T08:06:02.804Z,61.3400
2023-05-05T08:07:05.376Z,61.1691
2023-05-05T08:08:08.141Z,61.0252
2023-05-05T08:09:10.685Z,61.2976
2023-05-05T08:10:13.308Z,61.1912
2023-05-05T08:11:15.935Z,61.5663
2023-05-05T08:12:18.494Z,61.8758
2023-05-05T08:13:21.175Z,61.7322
2023-05-05T08:14:23.770Z,62.3959
2023-05-05T08:15:26.372Z,61.8773
2023-05-05T08:16:28.996Z,61.4638
2023-05-05T08:17:31.571Z,60.9522
2023-05-05T08:18:34.240Z,61.4622
2023-05-05T08:19:36.763Z,61.4902
2023-05-05T08:20:39.373Z,60.7461
2023-05-05T08:21:41.973Z,60.7152
2023-05-05T08:22:44.642Z,60.1670
2023-05-05T08:23:47.298Z,60.9057
2023-05-05T08:24:49.903Z,60.5705
2023-05-05T08:25:52.509Z,60.5244
2023-05-05T08:26:55.126Z,60.4404
2023-05-05T08:27:55.402Z,59.5548
2023-05-05T08:28:58.064Z,58.6655
2023-05-05T08:30:00.600Z,58.3940
2023-05-05T08:31:03.237Z,57.9270
2023-05-05T08:32:05.801Z,57.5036
2023-05-05T08:33:08.467Z,57.2451
2023-05-05T08:34:11.073Z,57.4643
2023-05-05T08:35:13.859Z,57.5558
2023-05-05T08:36:13.970Z,57.2319
2023-05-05T08:37:16.629Z,58.2786
2023-05-05T08:38:19.189Z,58.1714
2023-05-05T08:39:21.767Z,57.7183
2023-05-05T08:40:24.290Z,57.2079
2023-05-05T08:41:26.915Z,57.3456
2023-05-05T08:42:37.253Z,56.6804
2023-05-05T08:43:29.540Z,56.2703
2023-05-05T08:44:32.122Z,56.1044
2023-05-05T08:45:34.718Z,56.2493
2023-05-05T08:46:37.353Z,56.0803
2023-05-05T08:47:39.966Z,56.4782
2023-05-05T08:48:42.589Z,57.1804
2023-05-05T08:49:45.312Z,57.1461
2023-05-05T08:50:47.855Z,56.3430
2023-05-05T08:51:50.447Z,55.6691
2023-05-05T08:52:51.383Z,56.0659
2023-05-05T08:53:51.306Z,56.8121
2023-05-05T08:54:53.887Z,55.9244
2023-05-05T08:55:56.515Z,56.2248
2023-05-05T08:56:59.065Z,56.8865
2023-05-05T08:58:01.673Z,55.9037
2023-05-05T08:59:04.323Z,55.8113
2023-05-05T09:00:06.878Z,55.7237
2023-05-05T09:01:09.479Z,55.9681
2023-05-05T09:02:12.058Z,55.7043
2023-05-05T09:03:14.728Z,56.4376
2023-05-05T09:04:14.661Z,57.0634
2023-05-05T09:05:17.202Z,57.1969
2023-05-05T09:06:19.739Z,57.6950
2023-05-05T09:07:22.322Z,57.2451
2023-05-05T09:08:24.887Z,57.3338
2023-05-05T09:09:27.390Z,57.5654
2023-05-05T09:10:29.990Z,57.4610
2023-05-05T09:11:32.577Z,57.8056
2023-05-05T09:12:35.138Z,56.7095
2023-05-05T09:13:37.647Z,56.7052
2023-05-05T09:14:40.192Z,55.9830
2023-05-05T09:15:42.720Z,55.5547
2023-05-05T09:16:45.297Z,54.6174
2023-05-05T09:17:47.893Z,54.7295
2023-05-05T09:18:50.485Z,55.1689
2023-05-05T09:19:53.026Z,55.2275
2023-05-05T09:20:56.878Z,54.8855
2023-05-05T09:21:55.759Z,54.4428
2023-05-05T09:22:58.296Z,55.5197
2023-05-05T09:24:07.433Z,55.8777
2023-05-05T09:25:00.913Z,55.7267
2023-05-05T09:26:03.505Z,55.3272
2023-05-05T09:27:06.030Z,54.6457
2023-05-05T09:28:08.656Z,54.6473
2023-05-05T09:29:11.190Z,54.5491
2023-05-05T09:30:13.776Z,54.4131
2023-05-05T09:31:16.517Z,53.8000
2023-05-05T09:32:16.403Z,54.4355
2023-05-05T09:33:19.026Z,53.7633
2023-05-05T09:34:21.547Z,53.8715
2023-05-05T09:35:24.095Z,54.5317
2023-05-05T09:36:24.034Z,54.1702
2023-05-05T09:37:26.622Z,54.1724
2023-05-05T09:38:29.168Z,54.3448
2023-05-05T09:39:31.799Z,54.4684
2023-05-05T09:40:34.407Z,55.2318
2023-05-05T09:41:36.944Z,54.8977
2023-05-05T09:42:39.460Z,55.1532
2023-05-05T09:43:40.292Z,54.8840
2023-05-05T09:44:42.832Z,54.2966
2023-05-05T09:45:45.409Z,54.4826
2023-05-05T09:46:48.044Z,55.9579
2023-05-05T09:47:47.913Z,55.9255
2023-05-05T09:48:47.841Z,54.2805
2023-05-05T09:49:50.354Z,53.4520
2023-05-05T09:50:52.923Z,54.3319
2023-05-05T09:51:55.534Z,55.0455
2023-05-05T09:52:58.076Z,55.0014
2023-05-05T09:54:00.664Z,55.0665
2023-05-05T09:55:03.236Z,55.1451
2023-05-05T09:56:05.902Z,54.8725
2023-05-05T09:57:08.527Z,55.5670
2023-05-05T09:58:11.128Z,54.9548
2023-05-05T09:59:13.672Z,54.4029
2023-05-05T10:00:16.230Z,54.0230
2023-05-05T10:01:18.855Z,53.3609
2023-05-05T10:02:21.404Z,52.8190
2023-05-05T10:03:23.953Z,53.0768
2023-05-05T10:04:26.528Z,53.4211
2023-05-05T10:05:29.109Z,53.2022
2023-05-05T10:06:31.733Z,52.1110
2023-05-05T10:07:34.264Z,53.3057
2023-05-05T10:08:36.777Z,52.7936
2023-05-05T10:09:39.258Z,53.3057
2023-05-05T10:10:41.882Z,53.7537
2023-05-05T10:11:44.405Z,53.4129
2023-05-05T10:12:46.955Z,52.0652
2023-05-05T10:13:49.497Z,52.3469
2023-05-05T10:14:52.010Z,53.0125
2023-05-05T10:15:54.583Z,53.5451
2023-05-05T10:16:57.103Z,53.3222
2023-05-05T10:18:06.720Z,52.7767
2023-05-05T10:18:59.611Z,52.5032
2023-05-05T10:20:02.157Z,51.6240
2023-05-05T10:21:04.737Z,51.1610
2023-05-05T10:22:07.283Z,51.8552
2023-05-05T10:23:09.833Z,51.3727
2023-05-05T10:24:12.418Z,50.8698
2023-05-05T10:25:14.929Z,51.0453
2023-05-05T10:26:17.458Z,50.3762
2023-05-05T10:27:19.997Z,51.7137
2023-05-05T10:28:22.568Z,50.8063
2023-05-05T10:29:25.094Z,50.2720
2023-05-05T10:30:27.623Z,51.3419
2023-05-05T10:31:30.323Z,50.7772
2023-05-05T10:32:51.150Z,51.1234
2023-05-05T10:33:32.906Z,50.5948
2023-05-05T10:34:35.540Z,49.9488
2023-05-05T10:35:38.081Z,51.9547
2023-05-05T10:36:40.602Z,51.0106
2023-05-05T10:37:43.137Z,50.8062
2023-05-05T10:38:45.690Z,50.9223
2023-05-05T10:39:48.236Z,51.5446
2023-05-05T10:40:50.756Z,52.5715
2023-05-05T10:41:53.321Z,53.3069
2023-05-05T10:42:55.832Z,51.9684
2023-05-05T10:43:58.358Z,52.6431
2023-05-05T10:45:00.946Z,52.4799
2023-05-05T10:46:00.907Z,52.1792
2023-05-05T10:47:00.990Z,50.8300
2023-05-05T10:48:03.638Z,50.1990
2023-05-05T10:49:03.443Z,50.4809
2023-05-05T10:50:06.135Z,51.5867
2023-05-05T10:51:05.978Z,51.7527
2023-05-05T10:52:08.647Z,51.6587
2023-05-05T10:53:08.485Z,51.4124
2023-05-05T10:54:11.072Z,50.3447
2023-05-05T10:55:13.664Z,49.5395
2023-05-05T10:56:16.184Z,50.8441
2023-05-05T10:57:18.802Z,49.9623
2023-05-05T10:58:21.368Z,49.0037
2023-05-05T10:59:23.923Z,48.3237
2023-05-05T11:00:26.479Z,47.8662
2023-05-05T11:01:29.205Z,48.8970
2023-05-05T11:02:29.159Z,46.8186
2023-05-05T11:03:29.056Z,46.4304
2023-05-05T11:04:31.727Z,49.5676
2023-05-05T11:05:34.292Z,48.5201
2023-05-05T11:06:36.880Z,46.9528
2023-05-05T11:07:39.480Z,46.9178
2023-05-05T11:08:42.032Z,46.9329
2023-05-05T11:09:44.637Z,46.8606
2023-05-05T11:10:47.205Z,49.1040
2023-05-05T11:11:49.754Z,46.8928
2023-05-05T11:12:52.498Z,46.4974
2023-05-05T11:13:52.540Z,46.4900
2023-05-05T11:14:55.090Z,45.8475
2023-05-05T11:15:57.615Z,46.6491
2023-05-05T11:17:00.163Z,45.7665
2023-05-05T11:18:06.640Z,46.7627
2023-05-05T11:19:04.305Z,45.7675
2023-05-05T11:20:06.983Z,44.5039
2023-05-05T11:21:07.077Z,44.4393
2023-05-05T11:22:09.936Z,44.0735
2023-05-05T11:23:09.788Z,43.6915
2023-05-05T11:24:10.590Z,42.2727
2023-05-05T11:25:13.196Z,41.3279
2023-05-05T11:26:15.668Z,40.6708
2023-05-05T11:27:18.183Z,42.2243
2023-05-05T11:28:18.011Z,40.1240
2023-05-05T11:29:20.474Z,42.7148
2023-05-05T11:30:22.990Z,41.4871
2023-05-05T11:31:25.510Z,41.8547
2023-05-05T11:32:27.969Z,39.6996
2023-05-05T11:33:30.461Z,40.8325
2023-05-05T11:34:32.860Z,42.0495
2023-05-05T11:35:35.321Z,42.9978
2023-05-05T11:36:37.742Z,43.9110
2023-05-05T11:37:40.193Z,42.7867
2023-05-05T11:38:42.643Z,42.4876
2023-05-05T11:39:45.027Z,42.1525
2023-05-05T11:40:47.518Z,42.2206
2023-05-05T11:41:49.954Z,39.8820
2023-05-05T11:42:52.422Z,42.0702
2023-05-05T11:43:54.807Z,41.0458
2023-05-05T11:44:57.250Z,40.9149
2023-05-05T11:45:59.682Z,39.3838
2023-05-05T11:47:02.094Z,40.2711
2023-05-05T11:48:04.583Z,41.5011
2023-05-05T11:49:04.408Z,40.9364
2023-05-05T11:50:04.368Z,40.8428
2023-05-05T11:51:03.977Z,40.0086
2023-05-05T11:52:06.402Z,41.6820
2023-05-05T11:53:08.794Z,41.7754
2023-05-05T11:54:11.335Z,40.7650
2023-05-05T11:55:13.742Z,41.8887
2023-05-05T11:56:16.241Z,42.7487
2023-05-05T11:57:18.626Z,41.9041
2023-05-05T11:58:21.018Z,43.7643
2023-05-05T11:59:20.820Z,42.9188
2023-05-05T12:00:20.740Z,43.4696
2023-05-05T12:01:20.701Z,42.6820
2023-05-05T12:02:20.655Z,45.2557
2023-05-05T12:03:20.685Z,44.0768
2023-05-05T12:04:20.765Z,43.4956
2023-05-05T12:05:20.705Z,44.9562
2023-05-05T12:06:20.699Z,44.6844
2023-05-05T12:07:20.705Z,43.0170
2023-05-05T12:08:20.708Z,42.8480
2023-05-05T12:09:20.701Z,42.7066
2023-05-05T12:10:20.701Z,41.8470
2023-05-05T12:11:20.678Z,41.2002
2023-05-05T12:12:20.689Z,41.3194
2023-05-05T12:13:20.806Z,42.7376
2023-05-05T12:14:20.876Z,43.1659
2023-05-05T12:15:20.837Z,40.7488
2023-05-05T12:16:20.849Z,40.1753
2023-05-05T12:17:20.766Z,41.4768
2023-05-05T12:18:20.766Z,41.3296
2023-05-05T12:19:20.705Z,40.5568
2023-05-05T12:20:20.611Z,41.8883
2023-05-05T12:21:20.564Z,43.1745
2023-05-05T12:22:20.501Z,42.9903
2023-05-05T12:23:20.481Z,41.9926
2023-05-05T12:24:20.412Z,42.7569
2023-05-05T12:25:20.410Z,41.5001
2023-05-05T12:26:20.366Z,40.4151
2023-05-05T12:27:20.295Z,40.2561
2023-05-05T12:28:20.387Z,40.0985
2023-05-05T12:29:20.347Z,40.2121
2023-05-05T12:30:20.315Z,39.5046
2023-05-05T12:31:20.278Z,41.1034
2023-05-05T12:32:20.231Z,40.2650